Thunder radar more information blitzortung!


Radar de pluja more information rain snow radar


Visita la nostra xarxa de llocs de meteo:

Template documentation
and downloads

And another site



Wind From: 11-12-2017 11:00 Until: 14:59 warning for: Wind Level: Yellow info button

Pagina Historial Weather Underground text

Diari Resum January 20, 2016 Unitats:  Mètric    Imperial   Tant
« Previous Dia
SegĂźent Dia »
Diari Setmana Mensual Anual Personalitzada
  Maxima: Minima: Media:
Temperatura: 14.2 °C 5.4 °C 10.2 °C
Punt de rosada: 4.1 °C -1.7 °C 1.4 °C
Humitat: 64 % 48 % 54 %
Wind Speed: 9.3 km/h 0.0 km/h 3.4 km/h
RĂ fegues de vent: 9.3 km/h - -
Vent:- - SE
Pression baro: 1019.9 hPa 1014.8 hPa -
Precipitacions: 0.0 mm    
Historical Graphs
 
 
Dades de taula per January 20, 2016
Temps Temperatura Punt de rosada Pression baro Vent Wind Speed RĂ fegues de vent Humitat Rainfall Rate (Hourly)
11:07 7.3 °C 0.9 °C 1018.8 hPa NE 3.7 km/h 3.7 km/h 64 % 0.0 mm
11:12 7.6 °C 1.2 °C 1018.8 hPa ENE 3.2 km/h 3.2 km/h 64 % 0.0 mm
11:17 7.9 °C 1.5 °C 1018.8 hPa NE 3.7 km/h 3.7 km/h 64 % 0.0 mm
11:22 7.8 °C 1.2 °C 1018.8 hPa NNE 7.4 km/h 7.4 km/h 63 % 0.0 mm
11:27 7.9 °C 1.3 °C 1018.8 hPa NE 7.4 km/h 7.4 km/h 63 % 0.0 mm
11:38 8.3 °C 1.4 °C 1017.8 hPa ENE 5.6 km/h 5.6 km/h 62 % 0.0 mm
11:43 8.4 °C 1.6 °C 1017.8 hPa ENE 5.6 km/h 5.6 km/h 62 % 0.0 mm
11:48 8.6 °C 1.7 °C 1017.8 hPa ENE 5.6 km/h 5.6 km/h 62 % 0.0 mm
11:53 9.0 °C 2.1 °C 1017.8 hPa NNE 5.6 km/h 5.6 km/h 62 % 0.0 mm
11:58 9.1 °C 1.9 °C 1017.8 hPa ENE 3.7 km/h 3.7 km/h 61 % 0.0 mm
12:03 9.4 °C 2.3 °C 1017.8 hPa NE 5.6 km/h 5.6 km/h 61 % 0.0 mm
12:08 9.7 °C 2.6 °C 1018.8 hPa ENE 7.4 km/h 7.4 km/h 61 % 0.0 mm
12:13 9.7 °C 2.6 °C 1018.8 hPa NNE 5.8 km/h 5.8 km/h 61 % 0.0 mm
12:18 9.8 °C 2.4 °C 1018.8 hPa ENE 9.3 km/h 9.3 km/h 60 % 0.0 mm
12:23 10.0 °C 2.3 °C 1017.8 hPa NE 7.6 km/h 7.6 km/h 59 % 0.0 mm
12:28 10.3 °C 2.6 °C 1017.8 hPa NE 7.4 km/h 7.4 km/h 59 % 0.0 mm
12:33 10.3 °C 2.6 °C 1017.8 hPa NE 5.6 km/h 5.6 km/h 59 % 0.0 mm
12:38 10.5 °C 2.6 °C 1017.8 hPa NNE 9.3 km/h 9.3 km/h 58 % 0.0 mm
12:43 10.6 °C 2.7 °C 1017.8 hPa NE 7.4 km/h 7.4 km/h 58 % 0.0 mm
12:48 10.8 °C 2.6 °C 1017.8 hPa ENE 8.7 km/h 8.7 km/h 57 % 0.0 mm
12:58 11.0 °C 2.8 °C 1016.8 hPa North 5.6 km/h 5.6 km/h 57 % 0.0 mm
13:03 11.4 °C 3.2 °C 1016.8 hPa NE 6.1 km/h 6.1 km/h 57 % 0.0 mm
13:08 11.5 °C 3.0 °C 1016.8 hPa ENE 5.6 km/h 5.6 km/h 56 % 0.0 mm
13:13 11.7 °C 3.2 °C 1016.8 hPa ENE 5.0 km/h 5.0 km/h 56 % 0.0 mm
13:18 11.9 °C 3.4 °C 1016.8 hPa NNE 4.7 km/h 4.7 km/h 56 % 0.0 mm
13:23 12.1 °C 3.3 °C 1017.8 hPa NE 5.6 km/h 5.6 km/h 55 % 0.0 mm
13:28 12.2 °C 3.4 °C 1017.8 hPa NE 3.7 km/h 3.7 km/h 55 % 0.0 mm
13:38 12.5 °C 3.4 °C 1017.8 hPa NE 5.6 km/h 5.6 km/h 54 % 0.0 mm
13:43 12.5 °C 3.7 °C 1017.8 hPa ENE 5.6 km/h 5.6 km/h 55 % 0.0 mm
13:48 12.7 °C 3.6 °C 1017.8 hPa NW 5.6 km/h 5.6 km/h 54 % 0.0 mm
13:53 12.8 °C 3.4 °C 1016.8 hPa NE 5.6 km/h 5.6 km/h 53 % 0.0 mm
14:03 12.8 °C 3.7 °C 1016.8 hPa NNE 3.7 km/h 3.7 km/h 54 % 0.0 mm
14:08 12.8 °C 3.4 °C 1016.8 hPa NE 7.4 km/h 7.4 km/h 53 % 0.0 mm
14:13 12.7 °C 3.1 °C 1016.8 hPa East 5.6 km/h 5.6 km/h 52 % 0.0 mm
14:18 12.8 °C 3.4 °C 1016.8 hPa NNE 5.6 km/h 5.6 km/h 53 % 0.0 mm
14:23 13.0 °C 3.6 °C 1016.8 hPa ENE 4.7 km/h 4.7 km/h 53 % 0.0 mm
14:28 13.1 °C 3.4 °C 1016.8 hPa WNW 2.3 km/h 2.6 km/h 52 % 0.0 mm
14:33 13.2 °C 3.6 °C 1016.8 hPa NE 3.7 km/h 3.7 km/h 52 % 0.0 mm
14:43 13.2 °C 3.6 °C 1015.8 hPa East 3.2 km/h 3.2 km/h 52 % 0.0 mm
14:48 13.3 °C 3.4 °C 1015.8 hPa South 5.8 km/h 5.8 km/h 51 % 0.0 mm
14:53 13.6 °C 3.7 °C 1015.8 hPa NE 7.4 km/h 7.4 km/h 51 % 0.0 mm
14:58 13.6 °C 3.7 °C 1015.8 hPa ENE 3.7 km/h 3.7 km/h 51 % 0.0 mm
15:03 13.6 °C 3.7 °C 1015.8 hPa NE 2.3 km/h 2.3 km/h 51 % 0.0 mm
15:08 13.7 °C 3.7 °C 1015.8 hPa SE 4.7 km/h 4.7 km/h 51 % 0.0 mm
15:13 14.0 °C 4.0 °C 1015.8 hPa ENE 7.4 km/h 7.4 km/h 51 % 0.0 mm
15:18 14.1 °C 4.1 °C 1015.8 hPa South 5.6 km/h 5.6 km/h 51 % 0.0 mm
15:23 14.2 °C 3.9 °C 1015.8 hPa SSE 3.7 km/h 3.7 km/h 50 % 0.0 mm
15:28 14.1 °C 3.8 °C 1015.8 hPa NE 2.3 km/h 2.3 km/h 50 % 0.0 mm
15:33 14.0 °C 3.7 °C 1015.8 hPa ENE 5.6 km/h 5.6 km/h 50 % 0.0 mm
15:38 14.0 °C 3.7 °C 1015.8 hPa ENE 7.4 km/h 7.4 km/h 50 % 0.0 mm
15:43 14.0 °C 3.7 °C 1015.8 hPa ENE 7.4 km/h 7.4 km/h 50 % 0.0 mm
15:48 14.0 °C 3.7 °C 1015.8 hPa East 5.8 km/h 5.8 km/h 50 % 0.0 mm
15:53 13.9 °C 3.6 °C 1015.8 hPa ENE 3.7 km/h 3.7 km/h 50 % 0.0 mm
15:58 13.9 °C 3.6 °C 1015.8 hPa ESE 7.4 km/h 7.4 km/h 50 % 0.0 mm
16:03 13.9 °C 3.3 °C 1015.8 hPa East 7.4 km/h 7.4 km/h 49 % 0.0 mm
16:13 13.7 °C 3.2 °C 1015.8 hPa NNE 3.7 km/h   49 % 0.0 mm
16:18 13.8 °C 3.3 °C 1015.8 hPa NE 1.9 km/h 1.9 km/h 49 % 0.0 mm
16:23 13.7 °C 3.2 °C 1015.8 hPa ENE 3.7 km/h 3.7 km/h 49 % 0.0 mm
16:33 13.9 °C 3.3 °C 1015.8 hPa East 3.7 km/h 3.7 km/h 49 % 0.0 mm
16:38 13.9 °C 3.3 °C 1015.8 hPa East 3.7 km/h 3.7 km/h 49 % 0.0 mm
16:43 13.9 °C 3.3 °C 1015.8 hPa ENE 3.7 km/h 3.7 km/h 49 % 0.0 mm
16:48 13.8 °C 3.3 °C 1015.8 hPa ESE 5.3 km/h 5.3 km/h 49 % 0.0 mm
16:53 13.7 °C 3.2 °C 1015.8 hPa East 1.9 km/h   49 % 0.0 mm
16:58 13.6 °C 3.1 °C 1015.8 hPa East 1.9 km/h   49 % 0.0 mm
17:03 13.6 °C 3.1 °C 1015.8 hPa ENE 1.9 km/h 1.9 km/h 49 % 0.0 mm
17:13 13.6 °C 2.8 °C 1015.8 hPa ENE 1.9 km/h   48 % 0.0 mm
17:18 13.5 °C 2.7 °C 1015.8 hPa ENE 1.9 km/h 1.9 km/h 48 % 0.0 mm
17:23 13.4 °C 2.6 °C 1014.8 hPa NNE 1.9 km/h   48 % 0.0 mm
17:28 13.4 °C 2.9 °C 1014.8 hPa WSW 3.5 km/h 3.5 km/h 49 % 0.0 mm
17:33 13.0 °C 2.5 °C 1014.8 hPa SW 5.6 km/h 5.6 km/h 49 % 0.0 mm
17:43 12.4 °C 2.3 °C 1015.8 hPa SW 2.6 km/h 2.6 km/h 50 % 0.0 mm
17:48 12.3 °C 2.2 °C 1015.8 hPa SW 3.7 km/h 3.7 km/h 50 % 0.0 mm
17:53 12.1 °C 2.3 °C 1015.8 hPa SW 3.9 km/h 3.9 km/h 51 % 0.0 mm
17:58 11.8 °C 2.0 °C 1015.8 hPa SW 5.8 km/h 5.8 km/h 51 % 0.0 mm
18:03 11.7 °C 1.9 °C 1015.8 hPa WSW 5.6 km/h 5.6 km/h 51 % 0.0 mm
18:08 11.5 °C 2.0 °C 1016.8 hPa SW 5.8 km/h 5.8 km/h 52 % 0.0 mm
18:13 11.4 °C 1.9 °C 1016.8 hPa WSW 5.6 km/h 5.6 km/h 52 % 0.0 mm
18:19 11.2 °C 1.7 °C 1016.8 hPa WSW 4.2 km/h 4.2 km/h 52 % 0.0 mm
18:24 11.1 °C 1.6 °C 1016.8 hPa WSW 2.3 km/h 2.6 km/h 52 % 0.0 mm
18:29 10.9 °C 1.4 °C 1016.8 hPa WSW 3.7 km/h 3.7 km/h 52 % 0.0 mm
18:34 10.8 °C 1.3 °C 1016.8 hPa WSW 3.9 km/h 3.9 km/h 52 % 0.0 mm
18:39 10.8 °C 1.3 °C 1016.8 hPa WSW 2.3 km/h 2.3 km/h 52 % 0.0 mm
18:44 10.7 °C 1.2 °C 1016.8 hPa WSW 3.7 km/h 3.7 km/h 52 % 0.0 mm
18:49 10.5 °C 1.1 °C 1016.8 hPa WSW 1.9 km/h 1.9 km/h 52 % 0.0 mm
18:54 10.3 °C 0.9 °C 1017.8 hPa WSW 4.2 km/h 4.2 km/h 52 % 0.0 mm
18:59 10.2 °C 0.8 °C 1017.8 hPa WSW 3.9 km/h 3.9 km/h 52 % 0.0 mm
19:04 10.2 °C 0.8 °C 1017.8 hPa WSW 2.3 km/h 2.3 km/h 52 % 0.0 mm
19:09 10.1 °C 0.9 °C 1016.8 hPa WSW 1.9 km/h 2.3 km/h 53 % 0.0 mm
19:14 10.0 °C 0.8 °C 1016.8 hPa WSW 2.3 km/h   53 % 0.0 mm
19:19 9.9 °C 0.8 °C 1016.8 hPa WSW 3.7 km/h 3.7 km/h 53 % 0.0 mm
19:24 9.8 °C 0.7 °C 1017.8 hPa WSW 3.7 km/h 3.7 km/h 53 % 0.0 mm
19:29 9.8 °C 0.7 °C 1017.8 hPa WSW 1.9 km/h 1.9 km/h 53 % 0.0 mm
19:34 9.8 °C 0.7 °C 1017.8 hPa WSW 1.9 km/h   53 % 0.0 mm
19:39 9.7 °C 0.6 °C 1017.8 hPa WSW 3.7 km/h 3.7 km/h 53 % 0.0 mm
19:44 9.7 °C 0.6 °C 1017.8 hPa WSW 3.7 km/h 3.7 km/h 53 % 0.0 mm
19:49 9.6 °C 0.5 °C 1017.8 hPa WSW 3.9 km/h 3.9 km/h 53 % 0.0 mm
19:59 9.1 °C 0.0 °C 1017.8 hPa WSW 3.9 km/h 3.9 km/h 53 % 0.0 mm
20:04 9.0 °C -0.1 °C 1017.8 hPa WSW 1.9 km/h 1.9 km/h 53 % 0.0 mm
20:09 9.0 °C -0.1 °C 1017.8 hPa WSW 3.7 km/h 3.7 km/h 53 % 0.0 mm
20:14 8.9 °C -0.4 °C 1017.8 hPa WSW 3.7 km/h 3.9 km/h 52 % 0.0 mm
20:19 8.7 °C -0.3 °C 1017.8 hPa WSW 3.7 km/h 3.7 km/h 53 % 0.0 mm
20:24 8.6 °C -0.4 °C 1017.8 hPa WSW 1.9 km/h 2.3 km/h 53 % 0.0 mm
20:29 8.5 °C -0.6 °C 1017.8 hPa NE 1.9 km/h 1.9 km/h 53 % 0.0 mm
20:34 8.4 °C -0.6 °C 1017.8 hPa Calm     53 % 0.0 mm
20:39 8.2 °C -0.8 °C 1017.8 hPa Calm     53 % 0.0 mm
20:44 8.1 °C -0.9 °C 1017.8 hPa NE 1.9 km/h 1.9 km/h 53 % 0.0 mm
20:49 8.0 °C -1.0 °C 1017.8 hPa Calm     53 % 0.0 mm
20:54 7.9 °C -0.8 °C 1018.8 hPa Calm     54 % 0.0 mm
20:59 7.7 °C -1.1 °C 1018.8 hPa Calm     54 % 0.0 mm
21:04 7.5 °C -1.2 °C 1018.8 hPa NE 1.9 km/h 1.9 km/h 54 % 0.0 mm
21:09 7.4 °C -1.3 °C 1017.8 hPa Calm     54 % 0.0 mm
21:14 7.3 °C -1.4 °C 1017.8 hPa Calm     54 % 0.0 mm
21:19 7.2 °C -1.5 °C 1017.8 hPa Calm     54 % 0.0 mm
21:24 7.1 °C -1.6 °C 1018.8 hPa Calm     54 % 0.0 mm
21:29 7.0 °C -1.4 °C 1018.8 hPa Calm     55 % 0.0 mm
21:34 6.9 °C -1.6 °C 1018.8 hPa Calm     55 % 0.0 mm
21:39 6.8 °C -1.6 °C 1018.8 hPa Calm     55 % 0.0 mm
21:44 6.7 °C -1.7 °C 1018.8 hPa Calm     55 % 0.0 mm
21:49 6.7 °C -1.7 °C 1018.8 hPa NE 2.3 km/h 2.3 km/h 55 % 0.0 mm
21:54 6.6 °C -1.6 °C 1018.8 hPa Calm     56 % 0.0 mm
21:59 6.5 °C -1.7 °C 1018.8 hPa Calm     56 % 0.0 mm
22:04 6.5 °C -1.4 °C 1018.8 hPa Calm     57 % 0.0 mm
22:09 6.5 °C -1.7 °C 1018.8 hPa WSW 3.7 km/h 3.7 km/h 56 % 0.0 mm
22:14 6.5 °C -1.4 °C 1018.8 hPa Calm     57 % 0.0 mm
22:19 6.5 °C -1.2 °C 1018.8 hPa Calm     58 % 0.0 mm
22:24 6.5 °C -1.2 °C 1018.8 hPa Calm     58 % 0.0 mm
22:34 6.6 °C -0.8 °C 1018.8 hPa NNE 1.9 km/h   59 % 0.0 mm
22:39 6.4 °C -1.3 °C 1018.8 hPa Calm     58 % 0.0 mm
22:44 6.3 °C -1.4 °C 1018.8 hPa Calm     58 % 0.0 mm
22:49 6.2 °C -1.2 °C 1018.8 hPa NNE 1.9 km/h   59 % 0.0 mm
22:59 6.1 °C -1.3 °C 1018.8 hPa Calm     59 % 0.0 mm
23:04 6.1 °C -1.1 °C 1018.8 hPa Calm     60 % 0.0 mm
23:09 6.0 °C -1.2 °C 1018.8 hPa Calm     60 % 0.0 mm
23:14 5.9 °C -1.3 °C 1018.8 hPa Calm     60 % 0.0 mm
23:19 5.8 °C -1.4 °C 1018.8 hPa Calm     60 % 0.0 mm
23:24 5.6 °C -1.6 °C 1018.8 hPa Calm     60 % 0.0 mm
23:29 5.6 °C -1.6 °C 1018.8 hPa Calm     60 % 0.0 mm
23:34 5.5 °C -1.4 °C 1018.8 hPa Calm     61 % 0.0 mm
23:39 5.5 °C -1.4 °C 1019.9 hPa Calm     61 % 0.0 mm
23:44 5.4 °C -1.5 °C 1019.9 hPa Calm     61 % 0.0 mm
Meteo Sesrovires
Elogis d' Weather Underground - 3.25 mb

Guio original per  Jim McMurry - jmcmurry@mwt.net Adaptat per a la plantilla per  Wim van der Kuil - Leuven-Template.eu

Trobareu la nostra informacio del temps tambe a:

Weather Underground

AWEKAS